Latest Weather Observations for Ernabella/Pukatja

IDS60801

Issued at 7:04 pm CDT Wednesday 4 March 2015 (issued every 30 minutes, with the page automatically refreshed every 10 minutes)

About weather observations | Map of weather stations | Latest weather observations for SA | Other Formats
Station Details ID: 016097 Name: PUKATJA Lat: -26.26 Lon: 132.18 Height: 703.2 m
Data from the previous 72 hours. | See also: Recent months at Ernabella/Pukatja
Date/Time
CDT
Temp
°C
App
Temp
°C
Dew
Point
Rel
Hum
%
Delta-T
°C
Wind Press
QNH
hPa
Press
MSL
hPa
Rain
since 9 am
mm
Dir
 
Spd
km/h
Gust
km/h
Spd
kts
Gust
kts
04/07:00pm 35.2 30.8 7.3 18 15.9 ESE 20 30 11 16 1016.0 - 0.0
04/06:30pm 35.9 31.0 7.0 17 16.5 ESE 22 28 12 15 1015.8 - 0.0
04/06:00pm 36.5 32.1 7.5 17 16.7 SSE 20 30 11 16 1015.5 1011.2 0.0
04/05:30pm 35.9 31.6 7.0 17 16.5 SE 19 41 10 22 1015.5 - 0.0
04/05:00pm 36.3 31.9 6.5 16 16.9 SE 19 32 10 17 1015.5 - 0.0
04/04:30pm 36.4 32.8 6.6 16 17.0 ENE 15 26 8 14 1015.6 - 0.0
04/04:00pm 36.3 31.9 6.5 16 16.9 E 19 28 10 15 1015.9 - 0.0
04/03:30pm 36.2 31.6 6.4 16 16.9 ENE 20 32 11 17 1016.2 - 0.0
04/03:00pm 35.8 31.1 6.1 16 16.7 ENE 20 30 11 16 1016.4 1012.2 0.0
04/02:30pm 35.2 30.6 6.5 17 16.2 NE 20 37 11 20 1016.6 - 0.0
04/02:00pm 34.9 29.9 7.9 19 15.5 E 24 35 13 19 1017.2 - 0.0
04/01:30pm 34.2 29.4 7.3 19 15.3 E 22 33 12 18 1017.8 - 0.0
04/01:00pm 32.5 27.3 7.4 21 14.2 E 24 37 13 20 1018.2 - 0.0
04/12:30pm 31.3 25.8 7.7 23 13.3 E 26 37 14 20 1018.7 - 0.0
04/12:00pm 31.0 26.5 8.7 25 12.8 E 22 33 12 18 1019.1 1014.9 0.0
04/11:30am 29.8 24.2 8.8 27 12.0 E 28 41 15 22 1019.4 - 0.0
04/11:00am 28.9 24.0 8.6 28 11.5 E 24 35 13 19 1019.5 - 0.0
04/10:30am 27.6 22.3 8.5 30 10.7 ESE 26 32 14 17 1019.5 - 0.0
04/10:00am 26.2 21.4 8.7 33 9.8 ESE 24 33 13 18 1019.5 - 0.0
04/09:30am 24.8 20.6 8.3 35 9.1 SE 20 28 11 15 1019.4 - 0.0
04/09:00am 24.4 20.5 7.1 33 9.3 SSE 17 24 9 13 1019.3 1015.1 0.0
04/08:30am 24.5 20.0 6.3 31 9.7 ESE 19 28 10 15 1018.8 - 0.0
04/08:00am 23.8 20.0 5.7 31 9.5 SE 15 28 8 15 1018.2 - 0.0
04/07:30am 23.8 20.2 5.2 30 9.7 SE 13 19 7 10 1017.9 - 0.0
04/07:00am 24.4 19.6 4.7 28 10.2 SE 19 28 10 15 1017.4 - 0.0
04/06:30am 24.6 19.2 4.4 27 10.4 SE 22 33 12 18 1016.6 - 0.0
04/06:00am 25.0 20.0 4.7 27 10.5 SE 20 32 11 17 1016.3 1012.0 0.0
04/05:30am 25.5 20.7 4.6 26 10.9 SE 19 30 10 16 1016.1 - 0.0
04/05:00am 25.9 20.6 4.9 26 11.0 SE 22 32 12 17 1015.9 - 0.0
04/04:30am 26.1 21.1 4.6 25 11.2 SE 20 28 11 15 1015.9 - 0.0
04/04:00am 26.7 22.0 5.1 25 11.4 SE 19 30 10 16 1016.2 - 0.0
04/03:30am 27.2 21.9 4.9 24 11.8 SE 22 33 12 18 1016.2 - 0.0
04/03:00am 27.8 22.5 4.8 23 12.2 SE 22 33 12 18 1016.2 1011.9 0.0
04/02:30am 28.2 23.2 4.5 22 12.5 SE 20 30 11 16 1016.4 - 0.0
04/02:00am 29.0 23.2 4.5 21 13.0 SE 24 37 13 20 1016.3 - 0.0
04/01:30am 29.4 22.5 4.8 21 13.1 SE 30 41 16 22 1016.4 - 0.0
04/01:00am 29.7 22.8 4.4 20 13.4 SE 30 44 16 24 1016.4 - 0.0
04/12:30am 29.7 22.8 4.4 20 13.4 SE 30 44 16 24 1016.5 - 0.0
04/12:00am 30.3 22.8 3.4 18 14.1 ESE 32 48 17 26 1016.3 1012.0 0.0
 
Date/Time
CDT
Temp
°C
App
Temp
°C
Dew
Point
Rel
Hum
%
Delta-T
°C
Wind Press
QNH
hPa
Press
MSL
hPa
Rain
since 9 am
mm
Dir
 
Spd
km/h
Gust
km/h
Spd
kts
Gust
kts
03/11:54pm 30.1 23.1 4.0 19 13.8 ESE 30 48 16 26 1016.4 - 0.0
03/11:30pm 30.3 23.7 4.1 19 13.9 SE 28 37 15 20 1016.5 - 0.0
03/11:00pm 30.9 24.2 3.8 18 14.3 ESE 28 41 15 22 1016.0 - 0.0
03/10:30pm 31.2 24.2 4.1 18 14.4 SE 30 41 16 22 1016.0 - 0.0
03/10:00pm 31.7 24.5 2.8 16 15.1 SE 30 46 16 25 1015.6 - 0.0
03/09:30pm 32.5 25.2 2.5 15 15.7 ESE 30 41 16 22 1015.1 - 0.0
03/09:00pm 33.5 26.6 2.4 14 16.3 ESE 28 37 15 20 1014.6 1010.3 0.0
03/08:30pm 34.3 27.3 1.9 13 17.0 ESE 28 39 15 21 1014.3 - 0.0
03/08:00pm 35.5 30.0 3.9 14 17.2 E 22 30 12 16 1013.7 - 0.0
03/07:30pm 36.3 31.3 4.6 14 17.5 E 20 32 11 17 1013.5 - 0.0
03/07:00pm 37.4 32.4 4.4 13 18.2 ESE 20 32 11 17 1013.2 - 0.0
03/06:30pm 37.4 32.8 5.4 14 18.0 ENE 19 26 10 14 1013.2 - 0.0
03/06:00pm 38.0 33.2 4.8 13 18.5 E 19 28 10 15 1013.2 1008.9 0.0
03/05:30pm 38.2 33.2 3.8 12 18.9 E 19 32 10 17 1013.1 - 0.0
03/05:00pm 38.4 33.9 4.0 12 19.0 E 17 32 9 17 1013.1 - 0.0
03/04:30pm 37.3 32.4 4.3 13 18.2 ESE 19 28 10 15 1013.3 - 0.0
03/04:00pm 37.9 32.3 3.6 12 18.8 E 22 33 12 18 1013.5 - 0.0
03/03:30pm 36.9 32.0 4.0 13 18.0 ENE 19 30 10 16 1013.8 - 0.0
03/03:00pm 37.5 32.4 3.3 12 18.6 ENE 19 28 10 15 1014.1 1009.8 0.0
03/02:30pm 36.5 31.1 4.7 14 17.6 ENE 22 35 12 19 1014.3 - 0.0
03/02:00pm 36.4 30.6 4.6 14 17.6 E 24 37 13 20 1014.7 - 0.0
03/01:30pm 35.6 30.5 4.0 14 17.2 E 20 32 11 17 1015.2 - 0.0
03/01:00pm 33.2 28.3 4.9 17 15.4 E 20 32 11 17 1015.6 - 0.0
03/12:30pm 33.1 28.5 5.6 18 15.2 E 19 28 10 15 1015.8 - 0.0
03/12:00pm 31.7 27.0 5.3 19 14.4 E 19 30 10 16 1016.3 1012.0 0.0
03/11:30am 30.8 27.0 6.0 21 13.6 ESE 15 22 8 12 1016.5 - 0.0
03/11:00am 29.2 24.7 6.0 23 12.6 ESE 19 24 10 13 1016.5 - 0.0
03/10:30am 28.1 24.0 6.2 25 11.9 SSE 17 24 9 13 1016.7 - 0.0
03/10:00am 27.2 23.4 6.0 26 11.4 SSE 15 24 8 13 1016.8 - 0.0
03/09:30am 26.5 23.1 6.0 27 11.0 SSE 13 19 7 10 1016.7 - 0.0
03/09:00am 25.8 23.2 5.9 28 10.6 SSE 9 15 5 8 1016.6 1012.4 0.0
03/08:30am 24.5 21.8 5.8 30 9.9 SW 9 13 5 7 1016.0 - 0.0
03/08:00am 24.1 21.1 5.9 31 9.6 SSW 11 17 6 9 1015.7 - 0.0
03/07:30am 25.7 22.6 7.3 31 10.0 SSE 13 20 7 11 1015.2 - 0.0
03/07:00am 26.2 22.8 7.7 31 10.2 SSE 15 19 8 10 1014.7 - 0.0
03/06:30am 27.2 23.9 8.1 30 10.7 S 15 20 8 11 1014.3 - 0.0
03/06:00am 27.5 24.5 7.9 29 10.9 SSE 13 19 7 10 1013.8 1009.6 0.0
03/05:30am 27.1 24.6 8.0 30 10.6 E 11 13 6 7 1013.3 - 0.0
03/05:00am 27.4 25.2 7.8 29 10.9 E 9 15 5 8 1013.0 - 0.0
03/04:30am 26.9 25.1 7.9 30 10.5 ENE 7 9 4 5 1012.7 - 0.0
03/04:00am 26.5 24.9 8.0 31 10.3 E 6 9 3 5 1012.6 - 0.0
03/03:30am 27.5 26.6 7.9 29 10.9 ENE 2 7 1 4 1012.5 - 0.0
03/03:00am 26.0 25.4 7.6 31 10.1 CALM 0 0 0 0 1012.2 1007.9 0.0
03/02:30am 28.0 27.5 7.8 28 11.3 CALM 0 0 0 0 1012.3 - 0.0
03/02:00am 27.5 26.9 7.4 28 11.1 CALM 0 0 0 0 1012.6 - 0.0
03/01:30am 28.5 28.1 8.2 28 11.4 CALM 0 4 0 2 1012.9 - 0.0
03/01:00am 29.2 27.0 7.7 26 12.0 E 9 11 5 6 1012.8 - 0.0
03/12:30am 30.9 28.7 8.0 24 13.0 ENE 9 9 5 5 1012.7 - 0.0
03/12:00am 30.9 29.3 8.0 24 13.0 ENE 6 7 3 4 1012.7 1008.4 0.0
 
Date/Time
CDT
Temp
°C
App
Temp
°C
Dew
Point
Rel
Hum
%
Delta-T
°C
Wind Press
QNH
hPa
Press
MSL
hPa
Rain
since 9 am
mm
Dir
 
Spd
km/h
Gust
km/h
Spd
kts
Gust
kts
02/11:30pm 31.4 29.2 7.8 23 13.4 NE 9 11 5 6 1012.8 - 0.0
02/11:00pm 32.9 29.9 7.7 21 14.4 SE 13 15 7 8 1012.6 - 0.0
02/10:30pm 32.9 30.3 7.7 21 14.4 SSE 11 17 6 9 1012.1 - 0.0
02/10:00pm 32.7 30.0 7.5 21 14.3 SSE 11 13 6 7 1011.7 - 0.0
02/09:30pm 32.5 31.5 7.4 21 14.2 S 2 11 1 6 1011.3 - 0.0
02/09:00pm 33.5 31.2 7.5 20 14.8 S 9 13 5 7 1011.0 1006.6 0.0
02/08:30pm 33.7 31.4 7.6 20 14.9 SSW 9 13 5 7 1010.6 - 0.0
02/08:00pm 34.5 32.6 7.5 19 15.4 SW 7 11 4 6 1010.3 - 0.0
02/07:30pm 35.2 32.7 6.5 17 16.2 W 9 13 5 7 1010.1 - 0.0
02/07:00pm 35.5 32.6 6.7 17 16.3 NW 11 13 6 7 1009.9 - 0.0
02/06:30pm 36.1 32.8 6.3 16 16.9 W 13 19 7 10 1009.7 - 0.0
02/06:00pm 37.0 35.2 7.0 16 17.2 N 6 13 3 7 1009.7 1005.3 0.0
02/05:30pm 36.0 33.2 7.1 17 16.5 N 11 15 6 8 1009.9 - 0.0
02/05:00pm 35.8 33.0 7.0 17 16.4 NNW 11 17 6 9 1010.0 - 0.0
02/04:30pm 35.3 32.4 6.6 17 16.2 N 11 17 6 9 1010.4 - 0.0
02/04:00pm 35.0 31.9 7.1 18 15.9 N 13 22 7 12 1010.9 - 0.0
02/03:30pm 34.7 31.5 6.9 18 15.8 N 13 20 7 11 1011.2 - 0.0
02/03:00pm 34.5 30.3 7.5 19 15.5 N 19 28 10 15 1011.6 1007.3 0.0
02/02:30pm 33.4 29.6 7.4 20 14.8 N 17 24 9 13 1012.0 - 0.0
02/02:00pm 33.0 28.7 7.8 21 14.4 N 20 30 11 16 1012.5 - 0.0
02/01:30pm 32.0 28.2 7.6 22 13.8 N 17 24 9 13 1012.9 - 0.0
02/01:00pm 31.8 27.6 7.5 22 13.7 NNE 19 28 10 15 1013.0 - 0.0
02/12:30pm 32.1 26.8 7.0 21 14.1 NNE 24 33 13 18 1013.0 - 0.0
02/12:00pm 32.8 28.1 7.6 21 14.3 NE 22 33 12 18 1013.4 1009.1 0.0
02/11:30am 31.7 26.5 7.4 22 13.7 NE 24 35 13 19 1013.7 - 0.0
02/11:00am 30.7 25.7 6.6 22 13.3 NE 22 32 12 17 1013.5 - 0.0
02/10:30am 28.4 23.4 4.6 22 12.6 ENE 20 28 11 15 1013.6 - 0.0
02/10:00am 28.1 22.9 3.7 21 12.7 ENE 20 26 11 14 1013.3 - 0.0
02/09:30am 26.0 20.6 2.7 22 11.7 NE 20 28 11 15 1013.2 - 0.0
02/09:00am 25.6 20.4 2.3 22 11.6 ENE 19 24 10 13 1013.3 1009.0 0.0
02/08:30am 24.3 20.7 3.0 25 10.7 E 11 15 6 8 1013.4 - 0.0
02/08:00am 22.7 19.3 3.8 29 9.5 ENE 11 15 6 8 1013.3 - 0.0
02/07:30am 21.9 18.8 3.6 30 9.1 ENE 9 11 5 6 1013.2 - 0.0
02/07:00am 23.0 18.7 3.5 28 9.8 ENE 15 19 8 10 1012.7 - 0.0
02/06:30am 23.2 19.7 3.7 28 9.8 NE 11 17 6 9 1013.0 - 0.0
02/06:00am 23.1 19.2 3.6 28 9.8 E 13 17 7 9 1013.0 1008.7 0.0
02/05:30am 23.3 18.8 4.3 29 9.7 E 17 20 9 11 1012.9 - 0.0
02/05:00am 23.7 19.4 5.1 30 9.7 E 17 22 9 12 1012.9 - 0.0
02/04:30am 24.0 20.9 5.4 30 9.7 E 11 15 6 8 1013.1 - 0.0
02/04:00am 24.4 21.3 5.7 30 9.9 E 11 17 6 9 1013.3 - 0.0
02/03:30am 24.8 20.3 6.1 30 9.9 E 19 22 10 12 1013.4 - 0.0
02/03:00am 25.0 20.5 6.2 30 10.0 E 19 30 10 16 1013.5 1009.2 0.0
02/02:30am 25.5 20.9 6.7 30 10.1 E 20 30 11 16 1013.6 - 0.0
02/02:00am 26.0 20.9 7.6 31 10.1 E 24 35 13 19 1013.7 - 0.0
02/01:30am 26.5 21.6 8.5 32 10.1 E 24 33 13 18 1014.0 - 0.0
02/01:00am 26.7 22.0 9.1 33 10.0 E 24 32 13 17 1014.1 - 0.0
02/12:30am 27.0 22.8 9.8 34 9.9 E 22 30 12 16 1014.2 - 0.0
02/12:00am 27.3 23.2 10.1 34 9.9 E 22 30 12 16 1014.2 1009.9 0.0
 
Date/Time
CDT
Temp
°C
App
Temp
°C
Dew
Point
Rel
Hum
%
Delta-T
°C
Wind Press
QNH
hPa
Press
MSL
hPa
Rain
since 9 am
mm
Dir
 
Spd
km/h
Gust
km/h
Spd
kts
Gust
kts
01/11:30pm 27.7 23.3 10.4 34 10.0 ESE 24 32 13 17 1014.2 - 0.0
01/11:00pm 27.9 24.3 10.6 34 10.1 E 20 28 11 15 1014.1 - 0.0
01/10:30pm 28.3 23.6 10.5 33 10.4 E 26 35 14 19 1014.0 - 0.0
01/10:00pm 28.8 24.2 10.9 33 10.5 E 26 35 14 19 1013.7 - 0.0
01/09:30pm 29.5 25.3 11.1 32 10.9 E 24 33 13 18 1013.5 - 0.0
01/09:00pm 29.7 25.8 10.8 31 11.1 ESE 22 30 12 16 1013.2 1008.9 0.0
01/08:30pm 30.1 26.3 11.1 31 11.3 ESE 22 32 12 17 1012.8 - 0.0
01/08:00pm 30.9 28.1 11.3 30 11.7 E 17 24 9 13 1012.7 - 0.0
01/07:30pm 31.2 27.8 11.1 29 12.0 E 20 28 11 15 1012.7 - 0.0

Other Formats:

Comma delimited format used in spreadsheet applications
http://www.bom.gov.au/fwo/IDS60801/IDS60801.94474.axf

JavaScript Object Notation format (JSON) in row-major order
http://www.bom.gov.au/fwo/IDS60801/IDS60801.94474.json